Time;durP1;ratioP1;P1;durP2;ratioP2;P2;SDS_P1;SDS_P2;PMS_P1;PMS_P2;Temp;Humidity;BMP_temperature;BMP_pressure;BME280_temperature;BME280_humidity;BME280_pressure;Samples;Min_cycle;Max_cycle;Signal;HPM_P1;HPM_P2
2023/03/10 00:03:00;;;;;;;4.90;2.83;;;2.80;99.90;;;;;;25751058;22;20034;-40
2023/03/10 00:13:02;;;;;;;3.97;2.22;;;2.80;99.90;;;;;;25754839;23;20016;-41
2023/03/10 00:23:03;;;;;;;3.92;2.33;;;2.70;99.90;;;;;;25754054;22;20466;-40
2023/03/10 00:33:04;;;;;;;4.75;2.05;;;2.80;99.90;;;;;;25750152;22;20034;-40
2023/03/10 00:43:05;;;;;;;4.35;2.67;;;2.80;99.90;;;;;;25767403;23;20141;-40
2023/03/10 00:53:06;;;;;;;4.78;2.35;;;2.70;99.90;;;;;;25759437;23;20028;-40
2023/03/10 01:03:07;;;;;;;2.13;1.70;;;2.80;99.90;;;;;;25755081;23;20027;-40
2023/03/10 01:13:10;;;;;;;3.10;1.67;;;2.80;99.90;;;;;;25772064;23;20030;-40
2023/03/10 01:23:23;;;;;;;3.45;1.70;;;2.80;99.90;;;;;;25776767;22;20384;-40
2023/03/10 01:33:24;;;;;;;6.28;2.80;;;2.70;99.90;;;;;;25771937;22;20485;-41
2023/03/10 01:43:27;;;;;;;4.32;2.33;;;2.80;99.90;;;;;;25768421;22;20028;-41
2023/03/10 01:53:28;;;;;;;5.45;2.72;;;2.80;99.90;;;;;;25770921;23;20004;-40
2023/03/10 02:03:35;;;;;;;4.93;2.10;;;2.80;99.90;;;;;;25766212;23;20019;-40
2023/03/10 02:13:36;;;;;;;3.80;1.95;;;2.80;99.90;;;;;;25762962;23;20513;-40
2023/03/10 02:23:53;;;;;;;4.78;2.33;;;2.80;99.90;;;;;;25763425;23;20257;-40
2023/03/10 02:33:54;;;;;;;5.80;2.17;;;2.80;99.90;;;;;;25764715;23;20509;-40
2023/03/10 02:43:58;;;;;;;6.47;2.35;;;2.80;99.90;;;;;;25770770;22;20330;-40
2023/03/10 02:54:00;;;;;;;4.60;2.40;;;2.80;99.90;;;;;;25763530;23;20014;-40
2023/03/10 03:04:02;;;;;;;4.78;2.33;;;2.80;99.90;;;;;;25758072;23;20024;-40
2023/03/10 03:14:03;;;;;;;4.15;2.25;;;2.80;99.90;;;;;;25765159;23;20547;-40
2023/03/10 03:24:04;;;;;;;4.57;2.20;;;2.80;99.90;;;;;;25764653;23;20068;-40
2023/03/10 03:34:06;;;;;;;5.00;2.58;;;2.80;99.90;;;;;;25765907;22;20030;-41
2023/03/10 03:44:07;;;;;;;3.65;1.45;;;2.80;99.90;;;;;;25768699;22;20039;-41
2023/03/10 03:54:08;;;;;;;1.85;1.25;;;2.70;99.90;;;;;;25768902;23;20016;-40
2023/03/10 04:04:09;;;;;;;3.08;1.67;;;2.80;99.90;;;;;;25764019;22;20133;-41
2023/03/10 04:14:10;;;;;;;3.30;2.35;;;2.80;99.90;;;;;;25770475;23;20030;-40
2023/03/10 04:24:11;;;;;;;5.03;2.03;;;2.80;99.90;;;;;;25760726;23;20452;-40
2023/03/10 04:34:12;;;;;;;5.53;1.98;;;2.80;99.90;;;;;;25770343;23;20019;-40
2023/03/10 04:44:13;;;;;;;3.88;1.70;;;2.80;99.90;;;;;;25762760;23;20556;-40
2023/03/10 04:54:14;;;;;;;3.70;2.25;;;2.80;99.90;;;;;;25770574;23;20012;-40
2023/03/10 05:04:15;;;;;;;4.25;2.38;;;2.70;99.90;;;;;;25770411;23;20022;-40
2023/03/10 05:14:17;;;;;;;2.83;1.92;;;2.70;99.90;;;;;;25772568;22;20012;-40
2023/03/10 05:24:18;;;;;;;3.88;1.63;;;2.70;99.90;;;;;;25775920;22;20178;-40
2023/03/10 05:34:19;;;;;;;3.90;1.75;;;2.80;99.90;;;;;;25767822;23;20465;-40
2023/03/10 05:44:20;;;;;;;3.17;1.85;;;2.80;99.90;;;;;;25766139;23;20129;-40
2023/03/10 05:54:21;;;;;;;3.97;2.05;;;2.80;99.90;;;;;;25769384;23;20018;-40
2023/03/10 06:04:23;;;;;;;4.43;1.90;;;2.70;99.90;;;;;;25774626;22;20016;-40
2023/03/10 06:14:24;;;;;;;4.00;2.17;;;2.70;99.90;;;;;;25761444;23;20342;-40
2023/03/10 06:24:27;;;;;;;3.47;1.92;;;2.70;99.90;;;;;;25767055;23;20016;-40
2023/03/10 06:34:28;;;;;;;3.33;1.67;;;2.70;99.90;;;;;;25760476;23;20008;-40
2023/03/10 06:44:29;;;;;;;1.70;1.02;;;2.70;99.90;;;;;;25768362;23;20392;-40
2023/03/10 06:54:30;;;;;;;3.53;2.05;;;2.70;99.90;;;;;;25765168;23;20087;-40
2023/03/10 07:04:32;;;;;;;4.80;2.63;;;2.70;99.90;;;;;;25731202;22;20012;-40
2023/03/10 07:14:33;;;;;;;4.82;3.30;;;2.80;99.90;;;;;;25761527;23;20046;-40
2023/03/10 07:24:34;;;;;;;3.35;1.65;;;2.80;99.90;;;;;;25764491;23;20070;-40
2023/03/10 07:34:35;;;;;;;2.45;1.73;;;2.80;99.90;;;;;;25747679;23;20019;-40
2023/03/10 07:44:36;;;;;;;3.22;1.40;;;2.80;99.90;;;;;;25753758;22;20024;-40
2023/03/10 07:54:37;;;;;;;2.45;1.60;;;2.80;99.90;;;;;;25761833;23;20622;-41
2023/03/10 08:04:38;;;;;;;3.08;1.55;;;2.90;99.90;;;;;;25770027;23;20016;-40
2023/03/10 08:14:39;;;;;;;2.40;1.65;;;2.90;99.90;;;;;;25748901;22;20005;-41
2023/03/10 08:24:40;;;;;;;2.42;0.85;;;2.90;99.90;;;;;;25771077;23;20387;-40
2023/03/10 08:34:42;;;;;;;1.25;0.77;;;3.00;99.90;;;;;;25761356;23;20019;-40
2023/03/10 08:44:43;;;;;;;2.22;1.58;;;3.00;99.90;;;;;;25764465;23;20326;-40
2023/03/10 08:54:44;;;;;;;0.75;0.65;;;3.00;99.90;;;;;;25758030;23;20012;-41
2023/03/10 09:04:45;;;;;;;1.45;0.93;;;3.00;99.90;;;;;;25760043;23;20020;-40
2023/03/10 09:14:46;;;;;;;0.98;0.50;;;3.10;99.90;;;;;;25762838;22;20008;-40
2023/03/10 09:24:47;;;;;;;1.05;0.50;;;3.00;99.90;;;;;;25781951;22;20016;-41
2023/03/10 09:34:49;;;;;;;0.73;0.40;;;3.00;99.90;;;;;;25771274;23;20364;-40
2023/03/10 09:45:21;;;;;;;0.93;0.50;;;3.10;99.90;;;;;;25778927;22;20050;-40
2023/03/10 09:55:28;;;;;;;0.80;0.32;;;3.10;99.90;;;;;;25780139;22;20043;-40
2023/03/10 10:05:32;;;;;;;0.82;0.73;;;3.10;99.90;;;;;;25777555;22;20489;-40
2023/03/10 10:15:36;;;;;;;0.98;0.50;;;3.10;99.90;;;;;;25772640;23;20106;-40
2023/03/10 10:25:37;;;;;;;1.77;0.70;;;3.20;99.90;;;;;;25776680;22;20471;-40
2023/03/10 10:35:45;;;;;;;2.80;1.27;;;3.20;99.90;;;;;;25776298;23;20015;-40
2023/03/10 10:46:02;;;;;;;1.42;0.88;;;3.20;99.90;;;;;;25785655;22;20038;-40
2023/03/10 10:56:14;;;;;;;2.70;1.40;;;3.20;99.90;;;;;;25780632;22;20095;-41
2023/03/10 11:06:23;;;;;;;3.17;1.77;;;3.20;99.90;;;;;;25781986;23;20109;-40
2023/03/10 11:16:42;;;;;;;3.13;1.35;;;3.30;99.90;;;;;;25778369;23;20422;-40
2023/03/10 11:26:58;;;;;;;2.28;0.93;;;3.30;99.90;;;;;;25783574;23;20027;-40
2023/03/10 11:37:21;;;;;;;2.67;1.55;;;3.10;99.90;;;;;;25780933;23;20023;-40
2023/03/10 11:47:41;;;;;;;2.38;0.70;;;3.20;99.90;;;;;;25788885;22;20020;-40
2023/03/10 11:57:46;;;;;;;3.40;1.73;;;3.20;99.90;;;;;;25777780;23;20035;-40
2023/03/10 12:07:52;;;;;;;2.95;1.13;;;3.20;99.90;;;;;;25726805;23;20018;-40
2023/03/10 12:17:55;;;;;;;5.10;1.98;;;3.10;99.90;;;;;;25755175;22;21456;-40
2023/03/10 12:28:27;;;;;;;3.33;1.98;;;3.10;99.90;;;;;;25745602;23;20119;-40
2023/03/10 12:38:42;;;;;;;3.63;1.83;;;3.10;99.90;;;;;;25777860;23;20020;-40
2023/03/10 12:48:48;;;;;;;3.28;1.63;;;3.10;99.90;;;;;;25793995;23;20089;-40
2023/03/10 12:58:59;;;;;;;2.50;1.27;;;3.10;99.90;;;;;;25787977;23;20562;-41
2023/03/10 13:09:28;;;;;;;2.03;1.35;;;3.00;99.90;;;;;;25778277;23;20537;-40
2023/03/10 13:19:32;;;;;;;3.42;1.67;;;2.90;99.90;;;;;;25752855;23;20018;-40
2023/03/10 13:29:33;;;;;;;7.63;3.20;;;2.90;99.90;;;;;;25769087;22;20470;-40
2023/03/10 13:39:35;;;;;;;4.80;2.47;;;2.80;99.90;;;;;;25771033;23;20373;-40
2023/03/10 13:49:36;;;;;;;6.57;2.72;;;2.50;99.90;;;;;;25766743;23;20042;-40
2023/03/10 13:59:37;;;;;;;4.85;3.00;;;2.30;99.90;;;;;;25746795;23;20344;-40
2023/03/10 14:09:38;;;;;;;7.20;3.97;;;2.10;99.90;;;;;;25759298;23;20480;-40
2023/03/10 14:19:42;;;;;;;7.30;3.97;;;1.90;99.90;;;;;;25742832;22;20009;-40
2023/03/10 14:29:56;;;;;;;4.15;2.75;;;1.90;99.90;;;;;;25771286;23;20056;-41
2023/03/10 14:39:57;;;;;;;3.00;1.50;;;1.80;99.90;;;;;;25767873;23;20019;-41
2023/03/10 14:50:00;;;;;;;5.00;2.55;;;1.60;99.90;;;;;;25772116;23;20390;-41
2023/03/10 15:00:01;;;;;;;4.28;2.42;;;1.50;99.90;;;;;;25774745;22;20343;-40
2023/03/10 15:10:03;;;;;;;2.00;1.52;;;1.40;99.90;;;;;;25770132;23;20475;-41
2023/03/10 15:20:07;;;;;;;2.15;0.73;;;1.30;99.90;;;;;;25766463;23;20016;-40
2023/03/10 15:30:20;;;;;;;3.17;1.75;;;1.30;99.90;;;;;;25773495;23;20442;-40
2023/03/10 15:40:24;;;;;;;2.35;1.15;;;1.30;99.90;;;;;;25771010;22;20474;-40
2023/03/10 15:50:26;;;;;;;3.15;1.50;;;1.30;99.90;;;;;;25772530;23;20012;-40
2023/03/10 16:00:27;;;;;;;2.80;1.42;;;1.20;99.90;;;;;;25766976;23;20318;-40
2023/03/10 16:10:28;;;;;;;4.95;1.73;;;1.10;99.90;;;;;;25769890;23;20483;-40
2023/03/10 16:20:29;;;;;;;1.27;0.60;;;1.30;99.90;;;;;;25772705;23;20016;-40
2023/03/10 16:30:30;;;;;;;1.23;0.28;;;1.30;99.90;;;;;;25739742;23;20023;-40
2023/03/10 16:40:31;;;;;;;1.75;1.17;;;1.20;99.90;;;;;;25769695;23;20430;-40
2023/03/10 16:50:34;;;;;;;2.03;0.88;;;1.30;99.90;;;;;;25771016;23;20016;-40
2023/03/10 17:00:36;;;;;;;1.58;0.85;;;1.40;99.90;;;;;;25768874;22;20023;-40
2023/03/10 17:10:37;;;;;;;2.10;1.10;;;1.40;99.90;;;;;;25767475;23;20016;-40
2023/03/10 17:20:38;;;;;;;2.10;0.95;;;1.50;99.90;;;;;;25761866;23;20012;-40
2023/03/10 17:30:39;;;;;;;1.52;0.50;;;1.50;99.90;;;;;;25762359;23;20016;-40
2023/03/10 17:40:43;;;;;;;1.05;0.55;;;1.50;99.90;;;;;;25767661;23;20377;-40
2023/03/10 17:50:46;;;;;;;5.50;1.48;;;1.40;99.90;;;;;;25777553;23;20026;-40
2023/03/10 18:00:47;;;;;;;1.13;0.40;;;1.40;99.90;;;;;;25769634;23;20043;-40
2023/03/10 18:11:02;;;;;;;1.23;0.60;;;1.40;99.90;;;;;;25770224;23;20515;-40
2023/03/10 18:21:07;;;;;;;1.95;1.27;;;1.40;99.90;;;;;;25771626;23;20118;-40
2023/03/10 18:31:14;;;;;;;2.42;0.70;;;1.50;99.90;;;;;;25753465;23;20024;-40
2023/03/10 18:41:24;;;;;;;3.90;0.82;;;1.50;99.90;;;;;;25765299;22;20024;-40
2023/03/10 18:51:26;;;;;;;2.65;0.82;;;1.40;99.90;;;;;;25775893;22;20187;-40
2023/03/10 19:01:27;;;;;;;5.35;1.40;;;1.40;99.90;;;;;;25756797;23;20016;-40
2023/03/10 19:11:34;;;;;;;6.72;0.75;;;1.30;99.90;;;;;;25763097;23;20520;-40
2023/03/10 19:21:37;;;;;;;3.92;1.63;;;1.20;99.90;;;;;;25755682;23;20468;-40
2023/03/10 19:31:38;;;;;;;3.50;1.45;;;1.10;99.90;;;;;;25761482;23;20073;-40
2023/03/10 19:41:40;;;;;;;2.88;1.17;;;1.10;99.90;;;;;;25755677;23;20024;-40
2023/03/10 19:51:41;;;;;;;10.68;2.35;;;1.10;99.90;;;;;;25763874;23;20020;-40
2023/03/10 20:01:47;;;;;;;5.55;2.15;;;1.10;99.90;;;;;;25762414;23;20012;-40
2023/03/10 20:11:48;;;;;;;6.57;1.67;;;1.10;99.90;;;;;;25761470;23;20004;-41
2023/03/10 20:21:49;;;;;;;3.45;1.17;;;1.20;99.90;;;;;;25768992;23;20016;-41
2023/03/10 20:31:50;;;;;;;2.85;1.50;;;1.30;99.90;;;;;;25752381;23;20066;-41
2023/03/10 20:41:51;;;;;;;3.30;1.33;;;1.40;99.90;;;;;;25753603;23;20020;-41
2023/03/10 20:51:52;;;;;;;3.83;1.38;;;1.50;99.90;;;;;;25756354;23;20484;-40
2023/03/10 21:01:54;;;;;;;4.25;1.63;;;1.40;99.90;;;;;;25753771;23;20354;-41
2023/03/10 21:11:55;;;;;;;6.35;1.23;;;1.50;99.90;;;;;;25768230;23;20016;-41
2023/03/10 21:21:56;;;;;;;3.80;1.02;;;1.60;99.90;;;;;;25769044;22;20432;-40
2023/03/10 21:31:57;;;;;;;1.80;0.93;;;1.60;99.90;;;;;;25746961;22;20042;-41
2023/03/10 21:41:58;;;;;;;4.72;1.80;;;1.50;99.90;;;;;;25758074;23;20028;-41
2023/03/10 21:51:59;;;;;;;3.67;1.52;;;1.50;99.90;;;;;;25766678;23;20024;-41
2023/03/10 22:02:00;;;;;;;1.10;0.65;;;1.60;99.90;;;;;;25759043;23;20454;-41
2023/03/10 22:12:01;;;;;;;7.28;1.25;;;1.50;76.30;;;;;;25775077;23;20117;-41
2023/03/10 22:22:02;;;;;;;2.05;0.95;;;1.40;65.00;;;;;;25778679;23;20020;-41
2023/03/10 22:32:04;;;;;;;3.10;0.50;;;1.30;37.20;;;;;;25774925;23;20069;-41
2023/03/10 22:42:05;;;;;;;1.45;0.55;;;1.20;18.80;;;;;;25785192;23;20026;-41
2023/03/10 22:52:06;;;;;;;6.65;1.83;;;1.20;13.00;;;;;;25779015;23;20437;-41
2023/03/10 23:02:09;;;;;;;2.22;0.65;;;1.10;11.70;;;;;;25763353;23;20030;-41
2023/03/10 23:12:10;;;;;;;11.65;1.95;;;1.10;13.70;;;;;;25773837;23;20016;-41
2023/03/10 23:22:11;;;;;;;3.47;0.65;;;1.00;13.60;;;;;;25783190;23;20065;-41
2023/03/10 23:32:12;;;;;;;3.53;0.90;;;0.90;16.40;;;;;;25771700;23;20018;-41
2023/03/10 23:42:13;;;;;;;1.42;0.40;;;0.70;19.60;;;;;;25776700;23;20690;-41
2023/03/10 23:52:14;;;;;;;2.92;0.73;;;0.60;21.10;;;;;;25772610;23;20098;-41
